sensor_id;sensor_type;location;lat;lon;timestamp;temperature;humidity
46898;DHT22;32646;50.958;6.258;2023-11-19T00:01:20;12.30;99.90
46898;DHT22;32646;50.958;6.258;2023-11-19T00:03:47;12.40;99.90
46898;DHT22;32646;50.958;6.258;2023-11-19T00:06:16;12.40;99.90
46898;DHT22;32646;50.958;6.258;2023-11-19T00:08:43;12.30;99.90
46898;DHT22;32646;50.958;6.258;2023-11-19T00:11:09;12.40;99.90
46898;DHT22;32646;50.958;6.258;2023-11-19T00:13:36;12.40;99.90
46898;DHT22;32646;50.958;6.258;2023-11-19T00:16:03;12.40;99.90
46898;DHT22;32646;50.958;6.258;2023-11-19T00:18:30;12.40;99.90
46898;DHT22;32646;50.958;6.258;2023-11-19T00:20:56;12.30;99.90
46898;DHT22;32646;50.958;6.258;2023-11-19T00:23:23;12.30;99.90
46898;DHT22;32646;50.958;6.258;2023-11-19T00:25:49;12.30;99.90
46898;DHT22;32646;50.958;6.258;2023-11-19T00:28:16;12.20;99.90
46898;DHT22;32646;50.958;6.258;2023-11-19T00:30:43;12.20;99.90
46898;DHT22;32646;50.958;6.258;2023-11-19T00:33:09;12.10;99.90
46898;DHT22;32646;50.958;6.258;2023-11-19T00:35:36;12.20;99.90
46898;DHT22;32646;50.958;6.258;2023-11-19T00:38:03;12.20;99.90
46898;DHT22;32646;50.958;6.258;2023-11-19T00:40:29;12.20;99.90
46898;DHT22;32646;50.958;6.258;2023-11-19T00:42:56;12.10;99.90
46898;DHT22;32646;50.958;6.258;2023-11-19T00:45:24;12.00;99.90
46898;DHT22;32646;50.958;6.258;2023-11-19T00:47:51;12.00;99.90
46898;DHT22;32646;50.958;6.258;2023-11-19T00:50:18;12.00;99.90
46898;DHT22;32646;50.958;6.258;2023-11-19T00:52:44;12.00;99.90
46898;DHT22;32646;50.958;6.258;2023-11-19T00:55:11;12.00;99.90
46898;DHT22;32646;50.958;6.258;2023-11-19T00:57:38;12.00;99.90
46898;DHT22;32646;50.958;6.258;2023-11-19T01:00:07;12.00;99.90
46898;DHT22;32646;50.958;6.258;2023-11-19T01:02:34;12.10;99.90
46898;DHT22;32646;50.958;6.258;2023-11-19T01:05:01;12.20;99.90
46898;DHT22;32646;50.958;6.258;2023-11-19T01:07:28;12.20;99.90
46898;DHT22;32646;50.958;6.258;2023-11-19T01:09:54;12.30;99.90
46898;DHT22;32646;50.958;6.258;2023-11-19T01:12:21;12.30;99.90
46898;DHT22;32646;50.958;6.258;2023-11-19T01:14:47;12.40;99.90
46898;DHT22;32646;50.958;6.258;2023-11-19T01:17:14;12.40;99.90
46898;DHT22;32646;50.958;6.258;2023-11-19T01:19:41;12.40;99.90
46898;DHT22;32646;50.958;6.258;2023-11-19T01:22:08;12.30;99.90
46898;DHT22;32646;50.958;6.258;2023-11-19T01:24:35;12.40;99.90
46898;DHT22;32646;50.958;6.258;2023-11-19T01:27:01;12.50;99.90
46898;DHT22;32646;50.958;6.258;2023-11-19T01:29:28;12.50;99.90
46898;DHT22;32646;50.958;6.258;2023-11-19T01:31:54;12.40;99.90
46898;DHT22;32646;50.958;6.258;2023-11-19T01:34:21;12.40;99.90
46898;DHT22;32646;50.958;6.258;2023-11-19T01:36:48;12.40;99.90
46898;DHT22;32646;50.958;6.258;2023-11-19T01:39:15;12.40;99.90
46898;DHT22;32646;50.958;6.258;2023-11-19T01:41:42;12.40;99.90
46898;DHT22;32646;50.958;6.258;2023-11-19T01:44:08;12.50;99.90
46898;DHT22;32646;50.958;6.258;2023-11-19T01:46:35;12.50;99.90
46898;DHT22;32646;50.958;6.258;2023-11-19T01:49:02;12.50;99.90
46898;DHT22;32646;50.958;6.258;2023-11-19T01:51:31;12.50;99.90
46898;DHT22;32646;50.958;6.258;2023-11-19T01:53:58;12.60;99.90
46898;DHT22;32646;50.958;6.258;2023-11-19T01:56:26;12.50;99.90
46898;DHT22;32646;50.958;6.258;2023-11-19T01:58:54;12.50;99.90
46898;DHT22;32646;50.958;6.258;2023-11-19T02:01:22;12.50;99.90
46898;DHT22;32646;50.958;6.258;2023-11-19T02:03:48;12.40;99.90
46898;DHT22;32646;50.958;6.258;2023-11-19T02:06:16;12.60;99.90
46898;DHT22;32646;50.958;6.258;2023-11-19T02:08:43;12.60;99.90
46898;DHT22;32646;50.958;6.258;2023-11-19T02:11:09;12.60;99.90
46898;DHT22;32646;50.958;6.258;2023-11-19T02:13:37;12.60;99.90
46898;DHT22;32646;50.958;6.258;2023-11-19T02:16:05;12.50;99.90
46898;DHT22;32646;50.958;6.258;2023-11-19T02:18:32;12.60;99.90
46898;DHT22;32646;50.958;6.258;2023-11-19T02:20:59;12.60;99.90
46898;DHT22;32646;50.958;6.258;2023-11-19T02:23:29;12.50;99.90
46898;DHT22;32646;50.958;6.258;2023-11-19T02:28:36;12.50;99.90
46898;DHT22;32646;50.958;6.258;2023-11-19T02:31:03;12.50;99.90
46898;DHT22;32646;50.958;6.258;2023-11-19T02:33:30;12.50;99.90
46898;DHT22;32646;50.958;6.258;2023-11-19T02:35:56;12.40;99.90
46898;DHT22;32646;50.958;6.258;2023-11-19T02:38:23;12.40;99.90
46898;DHT22;32646;50.958;6.258;2023-11-19T02:40:50;12.40;99.90
46898;DHT22;32646;50.958;6.258;2023-11-19T02:43:16;12.50;99.90
46898;DHT22;32646;50.958;6.258;2023-11-19T02:45:43;12.50;99.90
46898;DHT22;32646;50.958;6.258;2023-11-19T02:48:10;12.40;99.90
46898;DHT22;32646;50.958;6.258;2023-11-19T02:50:36;12.40;99.90
46898;DHT22;32646;50.958;6.258;2023-11-19T02:53:03;12.30;99.90
46898;DHT22;32646;50.958;6.258;2023-11-19T02:55:29;12.40;99.90
46898;DHT22;32646;50.958;6.258;2023-11-19T02:57:56;12.30;99.90
46898;DHT22;32646;50.958;6.258;2023-11-19T03:00:23;12.30;99.90
46898;DHT22;32646;50.958;6.258;2023-11-19T03:02:50;12.40;99.90
46898;DHT22;32646;50.958;6.258;2023-11-19T03:05:17;12.60;99.90
46898;DHT22;32646;50.958;6.258;2023-11-19T03:07:44;12.60;99.90
46898;DHT22;32646;50.958;6.258;2023-11-19T03:10:11;12.50;99.90
46898;DHT22;32646;50.958;6.258;2023-11-19T03:12:38;12.50;99.90
46898;DHT22;32646;50.958;6.258;2023-11-19T03:15:05;12.50;99.90
46898;DHT22;32646;50.958;6.258;2023-11-19T03:17:32;12.50;99.90
46898;DHT22;32646;50.958;6.258;2023-11-19T03:19:58;12.50;99.90
46898;DHT22;32646;50.958;6.258;2023-11-19T03:22:25;12.40;99.90
46898;DHT22;32646;50.958;6.258;2023-11-19T03:24:52;12.50;99.90
46898;DHT22;32646;50.958;6.258;2023-11-19T03:27:18;12.50;99.90
46898;DHT22;32646;50.958;6.258;2023-11-19T03:29:45;12.60;99.90
46898;DHT22;32646;50.958;6.258;2023-11-19T03:32:11;12.60;99.90
46898;DHT22;32646;50.958;6.258;2023-11-19T03:34:38;12.70;99.90
46898;DHT22;32646;50.958;6.258;2023-11-19T03:37:06;12.70;99.90
46898;DHT22;32646;50.958;6.258;2023-11-19T03:39:32;12.80;99.90
46898;DHT22;32646;50.958;6.258;2023-11-19T03:41:59;12.80;99.90
46898;DHT22;32646;50.958;6.258;2023-11-19T03:44:27;12.70;99.90
46898;DHT22;32646;50.958;6.258;2023-11-19T03:46:53;12.60;99.90
46898;DHT22;32646;50.958;6.258;2023-11-19T03:49:20;12.60;99.90
46898;DHT22;32646;50.958;6.258;2023-11-19T03:51:47;12.60;99.90
46898;DHT22;32646;50.958;6.258;2023-11-19T03:54:13;12.50;99.90
46898;DHT22;32646;50.958;6.258;2023-11-19T03:56:40;12.50;99.90
46898;DHT22;32646;50.958;6.258;2023-11-19T03:59:06;12.50;99.90
46898;DHT22;32646;50.958;6.258;2023-11-19T04:01:33;12.50;99.90
46898;DHT22;32646;50.958;6.258;2023-11-19T04:04:00;12.40;99.90
46898;DHT22;32646;50.958;6.258;2023-11-19T04:06:26;12.50;99.90
46898;DHT22;32646;50.958;6.258;2023-11-19T04:08:53;12.40;99.90
46898;DHT22;32646;50.958;6.258;2023-11-19T04:11:20;12.30;99.90
46898;DHT22;32646;50.958;6.258;2023-11-19T04:13:46;12.30;99.90
46898;DHT22;32646;50.958;6.258;2023-11-19T04:16:13;12.30;99.90
46898;DHT22;32646;50.958;6.258;2023-11-19T04:18:40;12.20;99.90
46898;DHT22;32646;50.958;6.258;2023-11-19T04:21:07;12.20;99.90
46898;DHT22;32646;50.958;6.258;2023-11-19T04:23:34;12.30;99.90
46898;DHT22;32646;50.958;6.258;2023-11-19T04:26:04;12.30;99.90
46898;DHT22;32646;50.958;6.258;2023-11-19T04:28:33;12.30;99.90
46898;DHT22;32646;50.958;6.258;2023-11-19T04:31:00;12.30;99.90
46898;DHT22;32646;50.958;6.258;2023-11-19T04:33:27;12.30;99.90
46898;DHT22;32646;50.958;6.258;2023-11-19T04:35:53;12.20;99.90
46898;DHT22;32646;50.958;6.258;2023-11-19T04:38:20;12.20;99.90
46898;DHT22;32646;50.958;6.258;2023-11-19T04:40:46;12.20;99.90
46898;DHT22;32646;50.958;6.258;2023-11-19T04:43:13;12.20;99.90
46898;DHT22;32646;50.958;6.258;2023-11-19T04:45:40;12.20;99.90
46898;DHT22;32646;50.958;6.258;2023-11-19T04:48:06;12.20;99.90
46898;DHT22;32646;50.958;6.258;2023-11-19T04:50:33;12.20;99.90
46898;DHT22;32646;50.958;6.258;2023-11-19T04:53:00;12.20;99.90
46898;DHT22;32646;50.958;6.258;2023-11-19T04:55:26;12.10;99.90
46898;DHT22;32646;50.958;6.258;2023-11-19T04:57:54;12.00;99.90
46898;DHT22;32646;50.958;6.258;2023-11-19T05:00:21;11.90;99.90
46898;DHT22;32646;50.958;6.258;2023-11-19T05:02:49;11.90;99.90
46898;DHT22;32646;50.958;6.258;2023-11-19T05:05:16;11.90;99.90
46898;DHT22;32646;50.958;6.258;2023-11-19T05:07:43;11.90;99.90
46898;DHT22;32646;50.958;6.258;2023-11-19T05:10:09;11.80;99.90
46898;DHT22;32646;50.958;6.258;2023-11-19T05:12:36;11.80;99.90
46898;DHT22;32646;50.958;6.258;2023-11-19T05:15:03;11.90;99.90
46898;DHT22;32646;50.958;6.258;2023-11-19T05:17:30;11.90;99.90
46898;DHT22;32646;50.958;6.258;2023-11-19T05:19:57;11.80;99.90
46898;DHT22;32646;50.958;6.258;2023-11-19T05:22:23;11.80;99.90
46898;DHT22;32646;50.958;6.258;2023-11-19T05:24:50;11.90;99.90
46898;DHT22;32646;50.958;6.258;2023-11-19T05:27:17;11.90;99.90
46898;DHT22;32646;50.958;6.258;2023-11-19T05:29:43;11.80;99.90
46898;DHT22;32646;50.958;6.258;2023-11-19T05:32:10;11.70;99.90
46898;DHT22;32646;50.958;6.258;2023-11-19T05:34:37;11.70;99.90
46898;DHT22;32646;50.958;6.258;2023-11-19T05:37:17;11.70;99.90
46898;DHT22;32646;50.958;6.258;2023-11-19T05:39:45;11.70;99.90
46898;DHT22;32646;50.958;6.258;2023-11-19T05:42:11;11.70;99.90
46898;DHT22;32646;50.958;6.258;2023-11-19T05:44:38;11.80;99.90
46898;DHT22;32646;50.958;6.258;2023-11-19T05:47:07;11.90;99.90
46898;DHT22;32646;50.958;6.258;2023-11-19T05:49:34;11.80;99.90
46898;DHT22;32646;50.958;6.258;2023-11-19T05:52:00;11.80;99.90
46898;DHT22;32646;50.958;6.258;2023-11-19T05:54:27;11.90;99.90
46898;DHT22;32646;50.958;6.258;2023-11-19T05:56:56;11.90;99.90
46898;DHT22;32646;50.958;6.258;2023-11-19T05:59:22;11.90;99.90
46898;DHT22;32646;50.958;6.258;2023-11-19T06:01:49;11.80;99.90
46898;DHT22;32646;50.958;6.258;2023-11-19T06:04:16;11.80;99.90
46898;DHT22;32646;50.958;6.258;2023-11-19T06:06:42;12.00;99.90
46898;DHT22;32646;50.958;6.258;2023-11-19T06:09:09;12.00;99.90
46898;DHT22;32646;50.958;6.258;2023-11-19T06:11:38;12.00;99.90
46898;DHT22;32646;50.958;6.258;2023-11-19T06:14:06;12.10;99.90
46898;DHT22;32646;50.958;6.258;2023-11-19T06:16:33;12.20;99.90
46898;DHT22;32646;50.958;6.258;2023-11-19T06:18:59;11.90;99.90
46898;DHT22;32646;50.958;6.258;2023-11-19T06:21:26;11.90;99.90
46898;DHT22;32646;50.958;6.258;2023-11-19T06:23:53;12.00;99.90
46898;DHT22;32646;50.958;6.258;2023-11-19T06:26:20;11.90;99.90
46898;DHT22;32646;50.958;6.258;2023-11-19T06:28:46;11.90;99.90
46898;DHT22;32646;50.958;6.258;2023-11-19T06:31:13;11.80;99.90
46898;DHT22;32646;50.958;6.258;2023-11-19T06:33:40;11.90;99.90
46898;DHT22;32646;50.958;6.258;2023-11-19T06:36:07;11.80;99.90
46898;DHT22;32646;50.958;6.258;2023-11-19T06:38:33;11.80;99.90
46898;DHT22;32646;50.958;6.258;2023-11-19T06:41:00;11.70;99.90
46898;DHT22;32646;50.958;6.258;2023-11-19T06:43:27;11.60;99.90
46898;DHT22;32646;50.958;6.258;2023-11-19T06:46:14;11.60;99.90
46898;DHT22;32646;50.958;6.258;2023-11-19T06:48:41;11.60;99.90
46898;DHT22;32646;50.958;6.258;2023-11-19T06:51:08;11.40;99.90
46898;DHT22;32646;50.958;6.258;2023-11-19T06:53:34;11.40;99.90
46898;DHT22;32646;50.958;6.258;2023-11-19T06:56:02;11.40;99.90
46898;DHT22;32646;50.958;6.258;2023-11-19T06:58:28;11.40;99.90
46898;DHT22;32646;50.958;6.258;2023-11-19T07:00:55;11.40;99.90
46898;DHT22;32646;50.958;6.258;2023-11-19T07:03:21;11.30;99.90
46898;DHT22;32646;50.958;6.258;2023-11-19T07:05:48;11.30;99.90
46898;DHT22;32646;50.958;6.258;2023-11-19T07:08:15;11.30;99.90
46898;DHT22;32646;50.958;6.258;2023-11-19T07:10:41;11.40;99.90
46898;DHT22;32646;50.958;6.258;2023-11-19T07:13:08;11.40;99.90
46898;DHT22;32646;50.958;6.258;2023-11-19T07:15:35;11.50;99.90
46898;DHT22;32646;50.958;6.258;2023-11-19T07:18:01;11.40;99.90
46898;DHT22;32646;50.958;6.258;2023-11-19T07:20:29;11.50;99.90
46898;DHT22;32646;50.958;6.258;2023-11-19T07:22:55;11.50;99.90
46898;DHT22;32646;50.958;6.258;2023-11-19T07:25:23;11.50;99.90
46898;DHT22;32646;50.958;6.258;2023-11-19T07:27:51;11.50;99.90
46898;DHT22;32646;50.958;6.258;2023-11-19T07:30:18;11.60;99.90
46898;DHT22;32646;50.958;6.258;2023-11-19T07:32:44;11.50;99.90
46898;DHT22;32646;50.958;6.258;2023-11-19T07:35:11;11.50;99.90
46898;DHT22;32646;50.958;6.258;2023-11-19T07:37:38;11.60;99.90
46898;DHT22;32646;50.958;6.258;2023-11-19T07:40:05;11.60;99.90
46898;DHT22;32646;50.958;6.258;2023-11-19T07:42:31;11.70;99.90
46898;DHT22;32646;50.958;6.258;2023-11-19T07:44:58;11.70;99.90
46898;DHT22;32646;50.958;6.258;2023-11-19T07:47:25;12.00;99.90
46898;DHT22;32646;50.958;6.258;2023-11-19T07:49:51;12.20;99.90
46898;DHT22;32646;50.958;6.258;2023-11-19T07:52:18;12.20;99.90
46898;DHT22;32646;50.958;6.258;2023-11-19T07:54:48;12.40;99.90
46898;DHT22;32646;50.958;6.258;2023-11-19T07:57:15;12.40;99.90
46898;DHT22;32646;50.958;6.258;2023-11-19T07:59:41;12.50;99.90
46898;DHT22;32646;50.958;6.258;2023-11-19T08:02:08;12.50;99.90
46898;DHT22;32646;50.958;6.258;2023-11-19T08:04:35;12.60;99.90
46898;DHT22;32646;50.958;6.258;2023-11-19T08:07:01;12.60;99.90
46898;DHT22;32646;50.958;6.258;2023-11-19T08:09:28;12.70;99.90
46898;DHT22;32646;50.958;6.258;2023-11-19T08:11:55;12.90;99.40
46898;DHT22;32646;50.958;6.258;2023-11-19T08:14:21;12.90;98.80
46898;DHT22;32646;50.958;6.258;2023-11-19T08:16:48;12.90;97.30
46898;DHT22;32646;50.958;6.258;2023-11-19T08:19:15;12.70;97.70
46898;DHT22;32646;50.958;6.258;2023-11-19T08:21:41;12.80;98.70
46898;DHT22;32646;50.958;6.258;2023-11-19T08:24:08;13.00;96.20
46898;DHT22;32646;50.958;6.258;2023-11-19T08:26:35;12.90;95.90
46898;DHT22;32646;50.958;6.258;2023-11-19T08:29:01;13.00;94.50
46898;DHT22;32646;50.958;6.258;2023-11-19T08:31:28;13.20;93.70
46898;DHT22;32646;50.958;6.258;2023-11-19T08:33:55;13.20;93.80
46898;DHT22;32646;50.958;6.258;2023-11-19T08:36:21;13.10;93.30
46898;DHT22;32646;50.958;6.258;2023-11-19T08:38:48;13.20;94.90
46898;DHT22;32646;50.958;6.258;2023-11-19T08:41:16;13.30;92.60
46898;DHT22;32646;50.958;6.258;2023-11-19T08:43:42;13.30;91.30
46898;DHT22;32646;50.958;6.258;2023-11-19T08:46:13;13.30;89.60
46898;DHT22;32646;50.958;6.258;2023-11-19T08:48:40;13.30;91.10
46898;DHT22;32646;50.958;6.258;2023-11-19T08:51:06;13.60;90.50
46898;DHT22;32646;50.958;6.258;2023-11-19T08:53:33;13.60;89.30
46898;DHT22;32646;50.958;6.258;2023-11-19T08:56:00;13.80;85.40
46898;DHT22;32646;50.958;6.258;2023-11-19T08:58:28;13.70;86.50
46898;DHT22;32646;50.958;6.258;2023-11-19T09:00:55;13.80;86.40
46898;DHT22;32646;50.958;6.258;2023-11-19T09:03:22;13.70;83.60
46898;DHT22;32646;50.958;6.258;2023-11-19T09:05:49;13.80;83.30
46898;DHT22;32646;50.958;6.258;2023-11-19T09:08:15;14.00;83.80
46898;DHT22;32646;50.958;6.258;2023-11-19T09:10:42;14.10;84.00
46898;DHT22;32646;50.958;6.258;2023-11-19T09:13:09;14.10;81.90
46898;DHT22;32646;50.958;6.258;2023-11-19T09:15:35;14.40;81.60
46898;DHT22;32646;50.958;6.258;2023-11-19T09:18:02;14.40;79.00
46898;DHT22;32646;50.958;6.258;2023-11-19T09:20:29;14.40;76.20
46898;DHT22;32646;50.958;6.258;2023-11-19T09:22:56;14.30;78.00
46898;DHT22;32646;50.958;6.258;2023-11-19T09:25:23;14.30;77.60
46898;DHT22;32646;50.958;6.258;2023-11-19T09:27:50;14.20;77.60
46898;DHT22;32646;50.958;6.258;2023-11-19T09:30:16;14.50;75.90
46898;DHT22;32646;50.958;6.258;2023-11-19T09:32:43;14.20;77.90
46898;DHT22;32646;50.958;6.258;2023-11-19T09:35:10;14.20;78.40
46898;DHT22;32646;50.958;6.258;2023-11-19T09:37:36;14.40;78.40
46898;DHT22;32646;50.958;6.258;2023-11-19T09:40:03;14.40;75.00
46898;DHT22;32646;50.958;6.258;2023-11-19T09:42:32;14.50;75.50
46898;DHT22;32646;50.958;6.258;2023-11-19T09:45:06;14.50;77.20
46898;DHT22;32646;50.958;6.258;2023-11-19T09:47:39;14.60;77.20
46898;DHT22;32646;50.958;6.258;2023-11-19T09:50:07;14.70;74.40
46898;DHT22;32646;50.958;6.258;2023-11-19T09:52:33;14.60;75.20
46898;DHT22;32646;50.958;6.258;2023-11-19T09:55:00;14.60;75.50
46898;DHT22;32646;50.958;6.258;2023-11-19T09:57:28;15.00;71.20
46898;DHT22;32646;50.958;6.258;2023-11-19T09:59:58;14.60;71.00
46898;DHT22;32646;50.958;6.258;2023-11-19T10:02:27;14.60;74.60
46898;DHT22;32646;50.958;6.258;2023-11-19T10:04:56;14.60;73.00
46898;DHT22;32646;50.958;6.258;2023-11-19T10:07:25;14.70;72.80
46898;DHT22;32646;50.958;6.258;2023-11-19T10:09:53;15.20;71.90
46898;DHT22;32646;50.958;6.258;2023-11-19T10:12:19;14.90;72.90
46898;DHT22;32646;50.958;6.258;2023-11-19T10:14:47;15.10;69.20
46898;DHT22;32646;50.958;6.258;2023-11-19T10:17:14;15.00;70.80
46898;DHT22;32646;50.958;6.258;2023-11-19T10:19:41;15.30;70.20
46898;DHT22;32646;50.958;6.258;2023-11-19T10:22:08;15.20;66.00
46898;DHT22;32646;50.958;6.258;2023-11-19T10:24:34;14.90;67.60
46898;DHT22;32646;50.958;6.258;2023-11-19T10:27:07;14.50;71.00
46898;DHT22;32646;50.958;6.258;2023-11-19T10:29:36;14.50;71.70
46898;DHT22;32646;50.958;6.258;2023-11-19T10:32:03;14.40;71.60
46898;DHT22;32646;50.958;6.258;2023-11-19T10:34:50;14.40;73.30
46898;DHT22;32646;50.958;6.258;2023-11-19T10:37:43;14.00;75.10
46898;DHT22;32646;50.958;6.258;2023-11-19T10:40:10;13.60;80.30
46898;DHT22;32646;50.958;6.258;2023-11-19T10:42:37;13.10;93.10
46898;DHT22;32646;50.958;6.258;2023-11-19T10:45:04;12.60;99.90
46898;DHT22;32646;50.958;6.258;2023-11-19T10:47:31;12.70;99.90
46898;DHT22;32646;50.958;6.258;2023-11-19T10:50:02;13.50;99.90
46898;DHT22;32646;50.958;6.258;2023-11-19T10:52:29;13.90;98.40
46898;DHT22;32646;50.958;6.258;2023-11-19T10:55:00;14.00;90.30
46898;DHT22;32646;50.958;6.258;2023-11-19T10:57:30;14.50;88.60
46898;DHT22;32646;50.958;6.258;2023-11-19T11:00:01;14.40;75.70
46898;DHT22;32646;50.958;6.258;2023-11-19T11:02:30;14.60;77.90
46898;DHT22;32646;50.958;6.258;2023-11-19T11:05:02;14.40;74.80
46898;DHT22;32646;50.958;6.258;2023-11-19T11:07:30;14.10;78.40
46898;DHT22;32646;50.958;6.258;2023-11-19T11:10:07;13.80;80.30
46898;DHT22;32646;50.958;6.258;2023-11-19T11:12:36;13.70;81.80
46898;DHT22;32646;50.958;6.258;2023-11-19T11:15:05;13.50;86.30
46898;DHT22;32646;50.958;6.258;2023-11-19T11:17:33;13.70;86.40
46898;DHT22;32646;50.958;6.258;2023-11-19T11:20:01;14.10;82.80
46898;DHT22;32646;50.958;6.258;2023-11-19T11:22:28;14.10;80.20
46898;DHT22;32646;50.958;6.258;2023-11-19T11:27:48;14.90;72.80
46898;DHT22;32646;50.958;6.258;2023-11-19T11:30:31;15.20;74.00
46898;DHT22;32646;50.958;6.258;2023-11-19T11:33:06;15.40;71.30
46898;DHT22;32646;50.958;6.258;2023-11-19T11:35:55;15.60;71.20
46898;DHT22;32646;50.958;6.258;2023-11-19T11:38:26;15.40;73.60
46898;DHT22;32646;50.958;6.258;2023-11-19T11:41:18;14.90;75.20
46898;DHT22;32646;50.958;6.258;2023-11-19T11:43:50;14.90;75.60
46898;DHT22;32646;50.958;6.258;2023-11-19T11:49:03;15.40;75.80
46898;DHT22;32646;50.958;6.258;2023-11-19T11:57:08;15.50;70.40
46898;DHT22;32646;50.958;6.258;2023-11-19T12:02:08;15.60;67.70
46898;DHT22;32646;50.958;6.258;2023-11-19T12:04:36;15.00;71.90
46898;DHT22;32646;50.958;6.258;2023-11-19T12:07:07;14.60;78.80
46898;DHT22;32646;50.958;6.258;2023-11-19T12:09:34;14.20;76.70
46898;DHT22;32646;50.958;6.258;2023-11-19T12:12:27;14.00;80.20
46898;DHT22;32646;50.958;6.258;2023-11-19T12:15:05;13.90;79.40
46898;DHT22;32646;50.958;6.258;2023-11-19T12:20:04;13.70;84.60
46898;DHT22;32646;50.958;6.258;2023-11-19T12:22:31;13.70;90.00
46898;DHT22;32646;50.958;6.258;2023-11-19T12:24:58;13.50;93.50
46898;DHT22;32646;50.958;6.258;2023-11-19T12:27:25;13.40;93.90
46898;DHT22;32646;50.958;6.258;2023-11-19T12:29:52;13.30;92.30
46898;DHT22;32646;50.958;6.258;2023-11-19T12:32:18;13.30;92.10
46898;DHT22;32646;50.958;6.258;2023-11-19T12:34:45;13.30;93.10
46898;DHT22;32646;50.958;6.258;2023-11-19T12:37:12;13.20;92.70
46898;DHT22;32646;50.958;6.258;2023-11-19T12:39:38;13.10;93.80
46898;DHT22;32646;50.958;6.258;2023-11-19T12:42:05;12.70;99.90
46898;DHT22;32646;50.958;6.258;2023-11-19T12:44:32;12.50;99.90
46898;DHT22;32646;50.958;6.258;2023-11-19T12:47:05;12.60;99.90
46898;DHT22;32646;50.958;6.258;2023-11-19T12:49:33;12.70;99.90
46898;DHT22;32646;50.958;6.258;2023-11-19T12:52:00;12.80;99.90
46898;DHT22;32646;50.958;6.258;2023-11-19T12:54:36;12.60;99.90
46898;DHT22;32646;50.958;6.258;2023-11-19T12:57:04;12.40;99.90
46898;DHT22;32646;50.958;6.258;2023-11-19T12:59:31;12.40;99.90
46898;DHT22;32646;50.958;6.258;2023-11-19T13:01:58;12.70;99.90
46898;DHT22;32646;50.958;6.258;2023-11-19T13:04:31;13.00;99.90
46898;DHT22;32646;50.958;6.258;2023-11-19T13:06:58;13.10;99.50
46898;DHT22;32646;50.958;6.258;2023-11-19T13:09:29;13.20;96.70
46898;DHT22;32646;50.958;6.258;2023-11-19T13:11:56;13.30;95.20
46898;DHT22;32646;50.958;6.258;2023-11-19T13:14:23;13.80;94.30
46898;DHT22;32646;50.958;6.258;2023-11-19T13:16:49;14.10;89.70
46898;DHT22;32646;50.958;6.258;2023-11-19T13:19:16;14.10;85.80
46898;DHT22;32646;50.958;6.258;2023-11-19T13:21:43;14.30;83.80
46898;DHT22;32646;50.958;6.258;2023-11-19T13:24:09;14.50;79.60
46898;DHT22;32646;50.958;6.258;2023-11-19T13:26:36;14.60;79.30
46898;DHT22;32646;50.958;6.258;2023-11-19T13:29:03;14.50;76.00
46898;DHT22;32646;50.958;6.258;2023-11-19T13:31:30;14.00;78.90
46898;DHT22;32646;50.958;6.258;2023-11-19T13:33:57;13.60;85.20
46898;DHT22;32646;50.958;6.258;2023-11-19T13:36:24;13.40;86.80
46898;DHT22;32646;50.958;6.258;2023-11-19T13:38:50;13.40;86.10
46898;DHT22;32646;50.958;6.258;2023-11-19T13:41:17;13.50;87.70
46898;DHT22;32646;50.958;6.258;2023-11-19T13:43:44;13.70;87.90
46898;DHT22;32646;50.958;6.258;2023-11-19T13:46:10;13.70;84.70
46898;DHT22;32646;50.958;6.258;2023-11-19T13:48:38;13.60;81.20
46898;DHT22;32646;50.958;6.258;2023-11-19T13:51:05;13.60;87.10
46898;DHT22;32646;50.958;6.258;2023-11-19T13:53:31;13.70;79.20
46898;DHT22;32646;50.958;6.258;2023-11-19T13:56:16;13.60;83.30
46898;DHT22;32646;50.958;6.258;2023-11-19T13:58:43;13.50;82.50
46898;DHT22;32646;50.958;6.258;2023-11-19T14:01:10;13.40;81.80
46898;DHT22;32646;50.958;6.258;2023-11-19T14:03:36;13.30;84.10
46898;DHT22;32646;50.958;6.258;2023-11-19T14:06:03;13.30;85.50
46898;DHT22;32646;50.958;6.258;2023-11-19T14:08:30;13.10;89.40
46898;DHT22;32646;50.958;6.258;2023-11-19T14:10:57;12.90;89.50
46898;DHT22;32646;50.958;6.258;2023-11-19T14:13:24;13.00;90.10
46898;DHT22;32646;50.958;6.258;2023-11-19T14:15:51;13.10;85.80
46898;DHT22;32646;50.958;6.258;2023-11-19T14:18:18;13.00;90.00
46898;DHT22;32646;50.958;6.258;2023-11-19T14:20:45;12.70;92.80
46898;DHT22;32646;50.958;6.258;2023-11-19T14:23:11;12.90;90.90
46898;DHT22;32646;50.958;6.258;2023-11-19T14:25:38;13.10;88.00
46898;DHT22;32646;50.958;6.258;2023-11-19T14:28:05;13.20;87.80
46898;DHT22;32646;50.958;6.258;2023-11-19T14:30:32;13.00;89.60
46898;DHT22;32646;50.958;6.258;2023-11-19T14:32:59;12.80;89.60
46898;DHT22;32646;50.958;6.258;2023-11-19T14:35:26;12.60;92.30
46898;DHT22;32646;50.958;6.258;2023-11-19T14:37:52;12.60;92.30
46898;DHT22;32646;50.958;6.258;2023-11-19T14:40:19;12.60;92.20
46898;DHT22;32646;50.958;6.258;2023-11-19T14:42:46;12.60;93.30
46898;DHT22;32646;50.958;6.258;2023-11-19T14:45:12;12.60;91.70
46898;DHT22;32646;50.958;6.258;2023-11-19T14:47:39;12.60;92.30
46898;DHT22;32646;50.958;6.258;2023-11-19T14:50:06;12.60;91.40
46898;DHT22;32646;50.958;6.258;2023-11-19T14:52:35;12.60;93.30
46898;DHT22;32646;50.958;6.258;2023-11-19T14:55:02;12.60;92.80
46898;DHT22;32646;50.958;6.258;2023-11-19T14:57:28;12.50;92.70
46898;DHT22;32646;50.958;6.258;2023-11-19T14:59:55;12.40;94.40
46898;DHT22;32646;50.958;6.258;2023-11-19T15:02:21;12.30;97.00
46898;DHT22;32646;50.958;6.258;2023-11-19T15:04:48;12.10;99.50
46898;DHT22;32646;50.958;6.258;2023-11-19T15:07:15;12.00;99.90
46898;DHT22;32646;50.958;6.258;2023-11-19T15:09:42;11.90;99.90
46898;DHT22;32646;50.958;6.258;2023-11-19T15:12:08;11.70;99.90
46898;DHT22;32646;50.958;6.258;2023-11-19T15:14:35;11.60;99.90
46898;DHT22;32646;50.958;6.258;2023-11-19T15:17:02;11.50;99.90
46898;DHT22;32646;50.958;6.258;2023-11-19T15:19:29;11.60;99.90
46898;DHT22;32646;50.958;6.258;2023-11-19T15:21:55;11.40;99.90
46898;DHT22;32646;50.958;6.258;2023-11-19T15:24:22;11.50;99.90
46898;DHT22;32646;50.958;6.258;2023-11-19T15:26:49;11.50;99.90
46898;DHT22;32646;50.958;6.258;2023-11-19T15:29:15;11.60;99.90
46898;DHT22;32646;50.958;6.258;2023-11-19T15:31:42;11.50;99.90
46898;DHT22;32646;50.958;6.258;2023-11-19T15:34:09;11.60;99.90
46898;DHT22;32646;50.958;6.258;2023-11-19T15:36:36;11.50;99.90
46898;DHT22;32646;50.958;6.258;2023-11-19T15:39:02;11.60;99.90
46898;DHT22;32646;50.958;6.258;2023-11-19T15:41:29;11.50;99.90
46898;DHT22;32646;50.958;6.258;2023-11-19T15:43:56;11.50;99.90
46898;DHT22;32646;50.958;6.258;2023-11-19T15:46:22;11.60;99.90
46898;DHT22;32646;50.958;6.258;2023-11-19T15:48:49;11.70;99.90
46898;DHT22;32646;50.958;6.258;2023-11-19T15:51:15;11.70;99.90